Vremea acum in Targu Mures - Romania

Vrei sa afli care e starea vremii acum in Mures - Romania? Dorim sa iti furnizam starea vremii pentru Mures - Romania. Starea vremii Mures - Romania pentru astazi.

Vremea acum in Targu Mures

Temperatura: 12 °C

Se simte ca: 10.9 °C
Innorat: 0 %
Precipitatii: %
Presiune atmosferica: 1019 hPa
Umiditate: 71%
Vizibilitate: 10 km
Vantul bate din E cu 11.2 km/h

Evolutia vremii in Targu Mures pe ore

Ora: 21:00
Temperatura: °C
Sansa de precipitatii: %
Ora Descriere Temp Se simte Precipitatii Umiditate Vant
00:00Ploi de scurtă durată moderate sau în cantităţi însemnate14.4°14.1°66%87%SE 7.2 KM/H
01:00Ploi uşoare şi de scurtă durată12.8°12.3°68%88%SE 7.6 KM/H
02:00Ploi de scurtă durată moderate sau în cantităţi însemnate11.2°10.4°71%90%SE 7.9 KM/H
03:00Parțial noros10.9°10.2°47%90%SE 7.6 KM/H
04:00Ploi de scurtă durată moderate sau în cantităţi însemnate10.6°9.9°24%91%SE 6.8 KM/H
05:00Parțial noros10.3°9.7°0%91%SE 6.5 KM/H
06:00Parțial noros12°11.6°0%86%SE 6.8 KM/H
07:00Parțial noros13.6°13.4°0%81%SE 6.8 KM/H
08:00Parțial noros15.3°15.3°0%75%SSE 7.2 KM/H
09:00Parțial noros17°17°0%70%SSE 7.2 KM/H
10:00Parțial noros18.8°18.8°0%64%S 7.6 KM/H
11:00Parțial noros20.5°20.5°0%58%S 7.6 KM/H
12:00Parțial noros21.8°21.8°0%54%S 6.8 KM/H
13:00Parțial noros23.1°23.6°0%49%S 5.8 KM/H
14:00Parțial noros24.4°25.2°0%45%S 5 KM/H
15:00Parțial noros24.5°25.2°0%44%S 3.6 KM/H
16:00Parțial noros24.6°25.3°0%43%SSE 2.5 KM/H
17:00Parțial noros24.7°25.3°0%42%SE 1.1 KM/H
18:00Parțial noros24°25.4°0%48%ESE 3.2 KM/H
19:00Parțial noros23.4°25.6°0%53%E 5.8 KM/H
20:00Parțial noros22.7°25.7°0%58%E 7.9 KM/H
21:00Parțial noros21.4°21.4°0%62%E 7.9 KM/H
22:00Parțial noros20°20°0%65%ESE 8.3 KM/H
23:00Parțial noros18.7°18.7°0%68%SE 8.3 KM/H